Time;durP1;ratioP1;P1;durP2;ratioP2;P2;SDS_P1;SDS_P2;PMS_P1;PMS_P2;Temp;Humidity;BMP_temperature;BMP_pressure;BME280_temperature;BME280_humidity;BME280_pressure;Samples;Min_cycle;Max_cycle;Signal;HPM_P1;HPM_P2
2022/07/01 04:47:00;;;;;;;6.15;4.07;;;11.80;96.80;;;;;;4998368;28;20097;-65
2022/07/01 04:49:28;;;;;;;11.32;4.00;;;11.80;96.80;;;;;;5016331;28;20416;-65
2022/07/01 04:51:55;;;;;;;9.65;4.03;;;11.80;96.80;;;;;;5029017;28;20567;-65
2022/07/01 04:54:23;;;;;;;8.60;4.00;;;11.70;96.70;;;;;;5021652;28;20472;-64
2022/07/01 04:56:51;;;;;;;10.55;4.05;;;11.70;96.70;;;;;;5010894;28;20025;-64
2022/07/01 04:59:19;;;;;;;6.95;3.67;;;11.80;96.70;;;;;;5027447;28;20055;-64
2022/07/01 05:01:49;;;;;;;7.03;3.60;;;11.70;96.70;;;;;;5014831;28;20434;-63
2022/07/01 05:04:17;;;;;;;7.55;3.78;;;11.70;96.70;;;;;;5028624;28;20050;-65
2022/07/01 05:06:45;;;;;;;6.78;3.60;;;11.70;96.60;;;;;;5007985;28;20083;-65
2022/07/01 05:09:12;;;;;;;9.70;3.80;;;11.70;96.60;;;;;;5028322;28;20519;-64
2022/07/01 05:11:40;;;;;;;6.70;3.95;;;11.70;96.60;;;;;;5012250;28;20029;-64
2022/07/01 05:14:07;;;;;;;10.48;3.92;;;11.70;96.70;;;;;;5010500;28;20510;-65
2022/07/01 05:16:35;;;;;;;7.13;3.80;;;11.70;96.70;;;;;;4998763;28;20030;-65
2022/07/01 05:21:58;;;;;;;10.88;3.80;;;11.70;96.70;;;;;;5026178;28;20155;-65
2022/07/01 05:24:28;;;;;;;7.65;3.97;;;11.70;96.70;;;;;;5032875;28;20092;-65
2022/07/01 05:26:55;;;;;;;8.90;4.10;;;11.70;96.70;;;;;;5028856;28;20411;-66
2022/07/01 05:29:22;;;;;;;9.60;4.07;;;11.70;96.70;;;;;;5032767;28;20116;-65
2022/07/01 05:31:49;;;;;;;9.02;4.25;;;11.70;96.70;;;;;;5033191;28;20469;-65
2022/07/01 05:34:17;;;;;;;8.07;3.83;;;11.70;96.70;;;;;;5032693;28;20534;-65
2022/07/01 05:36:44;;;;;;;6.68;3.72;;;11.70;96.70;;;;;;5023775;28;20122;-65
2022/07/01 05:39:11;;;;;;;6.70;3.65;;;11.70;96.70;;;;;;5025703;28;20517;-65
2022/07/01 05:41:38;;;;;;;6.32;3.60;;;11.70;96.70;;;;;;5027831;28;20160;-65
2022/07/01 05:44:06;;;;;;;9.05;3.67;;;11.70;96.70;;;;;;5027803;28;20049;-65
2022/07/01 05:46:33;;;;;;;7.78;3.90;;;11.70;96.70;;;;;;5010569;28;20091;-64
2022/07/01 05:49:00;;;;;;;7.68;4.13;;;11.70;96.70;;;;;;5024915;28;20045;-65
2022/07/01 05:51:27;;;;;;;9.95;4.10;;;11.70;96.70;;;;;;5015355;28;20060;-65
2022/07/01 05:53:56;;;;;;;11.80;4.07;;;11.70;96.70;;;;;;5027151;28;20029;-65
2022/07/01 05:56:23;;;;;;;8.95;4.20;;;11.70;96.70;;;;;;5023811;28;20040;-64
2022/07/01 05:58:50;;;;;;;8.07;4.13;;;11.70;96.70;;;;;;5026107;28;20631;-64
2022/07/01 06:01:17;;;;;;;8.52;4.40;;;11.70;96.70;;;;;;5010279;28;20034;-64
2022/07/01 06:03:45;;;;;;;8.00;4.40;;;11.70;96.70;;;;;;5025277;28;20034;-65
2022/07/01 06:06:12;;;;;;;10.73;4.65;;;11.60;96.80;;;;;;5029075;28;20065;-63
2022/07/01 06:08:39;;;;;;;11.68;4.93;;;11.70;96.90;;;;;;5031948;28;20030;-63
2022/07/01 06:11:06;;;;;;;9.75;4.80;;;11.70;96.90;;;;;;5027700;28;20381;-63
2022/07/01 06:13:34;;;;;;;9.15;4.80;;;11.70;96.80;;;;;;5039705;28;20098;-63
2022/07/01 06:16:01;;;;;;;13.00;5.22;;;11.70;96.80;;;;;;5025118;28;20040;-64
2022/07/01 06:18:28;;;;;;;13.43;5.05;;;11.70;96.90;;;;;;5030813;28;20029;-64
2022/07/01 06:20:55;;;;;;;9.82;4.78;;;11.70;96.80;;;;;;5013688;28;20480;-64
2022/07/01 06:23:22;;;;;;;9.10;5.18;;;11.60;96.80;;;;;;5040291;28;20041;-64
2022/07/01 06:25:50;;;;;;;9.95;5.13;;;11.60;96.80;;;;;;5031921;28;20515;-64
2022/07/01 06:28:17;;;;;;;11.93;4.97;;;11.60;96.90;;;;;;5023737;28;20405;-64
2022/07/01 06:30:45;;;;;;;9.38;4.60;;;11.60;96.80;;;;;;5027768;28;20039;-64
2022/07/01 06:33:13;;;;;;;11.70;5.20;;;11.60;96.90;;;;;;5010057;28;20042;-63
2022/07/01 06:35:40;;;;;;;9.38;4.60;;;11.60;96.90;;;;;;5017954;28;20033;-63
2022/07/01 06:38:08;;;;;;;8.43;4.88;;;11.60;96.90;;;;;;5006229;28;20124;-62
2022/07/01 06:40:35;;;;;;;10.95;4.63;;;11.60;96.90;;;;;;5031193;28;20515;-63
2022/07/01 06:43:02;;;;;;;14.55;5.45;;;11.60;97.00;;;;;;5030812;28;20194;-64
2022/07/01 06:45:29;;;;;;;8.63;5.13;;;11.60;97.00;;;;;;5033206;28;20087;-64
2022/07/01 06:47:56;;;;;;;10.40;4.93;;;11.60;97.00;;;;;;5030848;28;20136;-64
2022/07/01 06:50:24;;;;;;;11.68;5.07;;;11.60;97.00;;;;;;5026766;28;20034;-64
2022/07/01 06:52:51;;;;;;;11.07;4.72;;;11.60;97.00;;;;;;5008827;28;20124;-64
2022/07/01 06:55:18;;;;;;;8.30;4.45;;;11.50;97.00;;;;;;5028833;28;20028;-64
2022/07/01 06:57:45;;;;;;;9.00;4.85;;;11.60;97.00;;;;;;5008046;28;20041;-64
2022/07/01 07:00:13;;;;;;;10.93;5.10;;;11.60;97.10;;;;;;5009896;28;20064;-63
2022/07/01 07:02:40;;;;;;;12.50;4.95;;;11.60;97.10;;;;;;5030874;28;20057;-63
2022/07/01 07:05:08;;;;;;;12.85;5.03;;;11.60;97.10;;;;;;5030783;28;20045;-64
2022/07/01 07:07:35;;;;;;;9.05;5.25;;;11.60;97.10;;;;;;5030791;28;20038;-63
2022/07/01 07:10:03;;;;;;;11.20;5.57;;;11.60;97.10;;;;;;5014392;28;20065;-64
2022/07/01 07:12:30;;;;;;;6.57;4.95;;;11.60;97.10;;;;;;5030482;28;20087;-63
2022/07/01 07:14:57;;;;;;;13.90;5.85;;;11.60;97.20;;;;;;4993701;28;20418;-62
2022/07/01 07:17:24;;;;;;;9.52;5.40;;;11.60;97.20;;;;;;5027356;28;20040;-63
2022/07/01 07:19:52;;;;;;;10.50;5.90;;;11.60;97.20;;;;;;5030139;28;20033;-63
2022/07/01 07:22:20;;;;;;;10.32;5.70;;;11.60;97.20;;;;;;5033568;28;20029;-63
2022/07/01 07:24:47;;;;;;;8.73;5.05;;;11.60;97.20;;;;;;5029737;28;20419;-63
2022/07/01 07:27:14;;;;;;;10.75;5.78;;;11.60;97.20;;;;;;5030020;28;20038;-63
2022/07/01 07:29:41;;;;;;;7.10;4.65;;;11.50;97.20;;;;;;5038283;28;20086;-63
2022/07/01 07:32:08;;;;;;;13.35;5.20;;;11.60;97.20;;;;;;5029955;28;20042;-63
2022/07/01 07:34:37;;;;;;;9.05;5.55;;;11.50;97.20;;;;;;5032466;28;20036;-63
2022/07/01 07:37:04;;;;;;;10.88;5.40;;;11.60;97.20;;;;;;5029679;28;20029;-63
2022/07/01 07:39:32;;;;;;;12.65;5.18;;;11.60;97.20;;;;;;5029531;28;20033;-64
2022/07/01 07:41:59;;;;;;;12.68;5.80;;;11.60;97.20;;;;;;5029500;28;20432;-63
2022/07/01 07:44:26;;;;;;;9.23;5.68;;;11.50;97.20;;;;;;5029880;28;20041;-63
2022/07/01 07:46:53;;;;;;;8.35;5.35;;;11.50;97.20;;;;;;5030652;28;20034;-64
2022/07/01 07:49:20;;;;;;;15.02;5.97;;;11.60;97.20;;;;;;5029497;28;20049;-64
2022/07/01 07:51:47;;;;;;;8.88;5.60;;;11.50;97.30;;;;;;5011967;28;20037;-64
2022/07/01 07:54:15;;;;;;;9.77;5.55;;;11.50;97.30;;;;;;5029232;28;20083;-64
2022/07/01 07:56:42;;;;;;;9.82;5.90;;;11.50;97.30;;;;;;5030317;28;20040;-62
2022/07/01 07:59:09;;;;;;;10.52;5.53;;;11.50;97.30;;;;;;5026930;28;20068;-62
2022/07/01 08:01:36;;;;;;;11.43;5.60;;;11.50;97.20;;;;;;5029328;28;20391;-62
2022/07/01 08:04:03;;;;;;;11.80;5.82;;;11.50;97.20;;;;;;5022340;28;20492;-62
2022/07/01 08:06:31;;;;;;;9.18;5.63;;;11.50;97.20;;;;;;5021661;28;20051;-61
2022/07/01 08:08:58;;;;;;;12.95;6.35;;;11.50;97.30;;;;;;5030836;28;20463;-61
2022/07/01 08:11:25;;;;;;;13.88;6.05;;;11.50;97.30;;;;;;5029942;28;20372;-61
2022/07/01 08:13:52;;;;;;;8.77;6.15;;;11.50;97.30;;;;;;5029778;28;20044;-61
2022/07/01 08:16:19;;;;;;;12.80;6.70;;;11.50;97.30;;;;;;5012061;28;20065;-61
2022/07/01 08:18:47;;;;;;;10.75;6.30;;;11.50;97.40;;;;;;5029439;28;20048;-61
2022/07/01 08:21:14;;;;;;;15.05;6.38;;;11.50;97.40;;;;;;5029383;28;20045;-61
2022/07/01 08:23:41;;;;;;;11.52;6.72;;;11.60;97.40;;;;;;5021229;28;20449;-63
2022/07/01 08:26:11;;;;;;;11.60;6.15;;;11.60;97.30;;;;;;5024419;28;20042;-60
2022/07/01 08:28:38;;;;;;;12.13;6.63;;;11.60;97.40;;;;;;5026084;28;20037;-61
2022/07/01 08:31:05;;;;;;;11.02;6.68;;;11.50;97.30;;;;;;5031267;28;20045;-61
2022/07/01 08:33:33;;;;;;;10.10;6.45;;;11.50;97.40;;;;;;5029174;28;20037;-61
2022/07/01 08:36:00;;;;;;;13.13;7.35;;;11.60;97.40;;;;;;5011396;28;20037;-61
2022/07/01 08:38:27;;;;;;;14.40;7.22;;;11.50;97.40;;;;;;5028675;28;20131;-61
2022/07/01 08:40:55;;;;;;;11.27;6.65;;;11.50;97.30;;;;;;5030918;28;20044;-61
2022/07/01 08:43:22;;;;;;;13.30;6.97;;;11.50;97.30;;;;;;5008973;28;20032;-61
2022/07/01 08:45:50;;;;;;;10.95;6.38;;;11.50;97.30;;;;;;5012138;28;20567;-62
2022/07/01 08:48:18;;;;;;;9.50;6.20;;;11.50;97.40;;;;;;5023330;28;20191;-61
2022/07/01 08:50:45;;;;;;;9.77;6.93;;;11.60;97.40;;;;;;5011089;28;20379;-61
2022/07/01 08:53:13;;;;;;;14.82;7.68;;;11.60;97.40;;;;;;5028526;28;20124;-61
2022/07/01 08:58:27;;;;;;;14.38;7.10;;;11.60;97.40;;;;;;5023791;28;20399;-61
2022/07/01 10:55:02;;;;;;;10.10;6.35;;;11.70;97.80;;;;;;5007248;28;20192;-62
2022/07/01 10:57:40;;;;;;;11.38;6.53;;;11.70;97.80;;;;;;4963760;28;20256;-61
2022/07/01 11:00:07;;;;;;;9.10;6.32;;;11.60;97.80;;;;;;4980472;28;20081;-61
2022/07/01 11:02:35;;;;;;;9.65;6.50;;;11.60;97.80;;;;;;4968649;28;20125;-61
2022/07/01 11:05:13;;;;;;;11.95;6.47;;;11.70;97.80;;;;;;4971701;28;20054;-61
2022/07/01 11:07:45;;;;;;;14.57;6.90;;;11.60;97.80;;;;;;4963723;28;20109;-61
2022/07/01 11:10:15;;;;;;;10.85;6.53;;;11.60;97.80;;;;;;4971714;28;20039;-61
2022/07/01 11:12:48;;;;;;;12.88;6.93;;;11.70;97.80;;;;;;4954824;28;20106;-61
2022/07/01 11:15:17;;;;;;;13.18;6.93;;;11.70;97.80;;;;;;4948256;28;20113;-61
2022/07/01 11:17:50;;;;;;;9.20;6.65;;;11.70;97.80;;;;;;4970064;28;20027;-61
2022/07/01 11:20:17;;;;;;;10.38;6.88;;;11.70;97.90;;;;;;4971483;28;20046;-60
2022/07/01 11:22:44;;;;;;;13.15;6.93;;;11.70;97.80;;;;;;4970429;28;20031;-61
2022/07/01 11:25:13;;;;;;;11.35;6.65;;;11.70;97.90;;;;;;4971565;28;20046;-60
2022/07/01 11:27:40;;;;;;;10.52;6.65;;;11.70;97.80;;;;;;4970857;28;20034;-61
2022/07/01 11:30:12;;;;;;;13.63;6.80;;;11.70;97.90;;;;;;4969629;28;20101;-61
2022/07/01 11:32:43;;;;;;;10.93;6.80;;;11.70;97.90;;;;;;4967920;28;20066;-62
2022/07/01 11:41:22;;;;;;;13.70;7.18;;;11.70;97.90;;;;;;4971443;28;20041;-62
2022/07/01 11:43:51;;;;;;;11.82;6.93;;;11.70;97.90;;;;;;4960869;28;20038;-63
2022/07/01 11:46:18;;;;;;;17.80;7.30;;;11.70;97.90;;;;;;4971625;28;20053;-61
2022/07/01 11:48:50;;;;;;;14.90;7.60;;;11.70;97.90;;;;;;4971215;28;20544;-62
2022/07/01 11:51:27;;;;;;;11.65;7.20;;;11.70;98.00;;;;;;4970422;28;20429;-64
2022/07/01 11:53:55;;;;;;;16.52;6.95;;;11.70;98.00;;;;;;4970011;28;20042;-63
2022/07/01 11:56:39;;;;;;;12.77;7.05;;;11.70;98.00;;;;;;4970073;28;20046;-63
2022/07/01 11:59:06;;;;;;;10.90;6.47;;;11.70;98.00;;;;;;4969661;28;20031;-61
2022/07/01 12:01:37;;;;;;;8.48;5.85;;;11.70;98.00;;;;;;4971855;28;20139;-60
2022/07/01 12:04:06;;;;;;;12.27;7.07;;;11.70;98.00;;;;;;4969330;28;20109;-61
2022/07/01 12:06:34;;;;;;;10.00;6.38;;;11.70;98.00;;;;;;4969679;28;20066;-61
2022/07/01 12:09:02;;;;;;;8.07;6.03;;;11.70;97.90;;;;;;4969773;28;20035;-60
2022/07/01 12:11:29;;;;;;;12.38;6.57;;;11.70;97.90;;;;;;4970017;28;21312;-61
2022/07/01 12:13:57;;;;;;;13.18;6.65;;;11.70;98.00;;;;;;4971465;28;20069;-61
2022/07/01 12:16:24;;;;;;;12.48;7.05;;;11.70;98.00;;;;;;4969492;28;20086;-60
2022/07/01 12:18:53;;;;;;;12.75;6.70;;;11.70;97.90;;;;;;4970740;28;20402;-60
2022/07/01 12:21:21;;;;;;;12.73;6.63;;;11.70;98.00;;;;;;4970904;28;20105;-60
2022/07/01 12:24:11;;;;;;;9.88;6.15;;;11.70;98.00;;;;;;4953765;28;20112;-60
2022/07/01 12:27:06;;;;;;;9.10;6.40;;;11.70;98.00;;;;;;4970886;28;20047;-60
2022/07/01 12:29:49;;;;;;;10.32;6.25;;;11.70;98.00;;;;;;4970773;28;20512;-60
2022/07/01 12:32:23;;;;;;;10.70;6.65;;;11.70;98.00;;;;;;4971230;28;20392;-61
2022/07/01 12:34:50;;;;;;;10.65;6.55;;;11.70;98.00;;;;;;4973986;28;20109;-61
2022/07/01 12:37:22;;;;;;;8.38;5.72;;;11.70;98.00;;;;;;4973410;28;20034;-62
2022/07/01 12:40:05;;;;;;;11.60;5.88;;;11.70;98.00;;;;;;4973426;28;20038;-61
2022/07/01 12:42:40;;;;;;;7.15;5.68;;;11.70;98.00;;;;;;4971698;28;20042;-61
2022/07/01 12:45:12;;;;;;;7.57;5.45;;;11.70;98.00;;;;;;4973304;28;20061;-61
2022/07/01 12:47:46;;;;;;;9.55;6.25;;;11.70;98.00;;;;;;4973469;28;20023;-61
2022/07/01 12:50:16;;;;;;;9.95;5.68;;;11.70;98.00;;;;;;4971620;28;20037;-61
2022/07/01 12:52:56;;;;;;;8.60;4.85;;;11.70;98.00;;;;;;4972674;28;20031;-61
2022/07/01 12:55:24;;;;;;;7.13;5.35;;;11.70;98.00;;;;;;4976775;28;20026;-61
2022/07/01 12:57:52;;;;;;;7.97;5.25;;;11.70;98.00;;;;;;4992284;28;20061;-61
2022/07/01 13:00:20;;;;;;;9.45;4.93;;;11.70;98.00;;;;;;4992166;28;20038;-62
2022/07/01 13:02:49;;;;;;;10.00;5.10;;;11.70;98.00;;;;;;4992271;28;20039;-62
2022/07/01 13:05:17;;;;;;;8.13;5.15;;;11.70;98.00;;;;;;4974395;28;20072;-61
2022/07/01 13:07:44;;;;;;;10.38;4.78;;;11.70;98.00;;;;;;4992508;28;20035;-62
2022/07/01 13:10:11;;;;;;;7.80;4.90;;;11.70;98.00;;;;;;4992717;28;20038;-62
2022/07/01 13:12:38;;;;;;;8.63;5.30;;;11.70;98.00;;;;;;4975196;28;20042;-61
2022/07/01 13:15:06;;;;;;;9.45;5.10;;;11.70;98.00;;;;;;4992833;28;20026;-62
2022/07/01 13:17:33;;;;;;;8.18;4.70;;;11.70;98.00;;;;;;4978570;28;20070;-61
2022/07/01 13:20:00;;;;;;;8.68;5.30;;;11.70;98.00;;;;;;4978832;28;20501;-61
2022/07/01 13:22:27;;;;;;;6.93;4.68;;;11.70;98.00;;;;;;4996535;28;20030;-61
2022/07/01 13:24:55;;;;;;;7.82;5.20;;;11.70;98.00;;;;;;4978842;28;20045;-61
2022/07/01 13:27:25;;;;;;;7.75;5.40;;;11.70;98.00;;;;;;4996058;28;20089;-61
2022/07/01 13:29:52;;;;;;;9.65;5.55;;;11.70;98.00;;;;;;4995851;28;20064;-61
2022/07/01 13:32:19;;;;;;;10.88;5.18;;;11.70;98.00;;;;;;4996044;28;20035;-61
2022/07/01 13:34:46;;;;;;;9.18;5.07;;;11.70;98.10;;;;;;4978798;28;20398;-61
2022/07/01 13:37:13;;;;;;;9.38;5.15;;;11.70;98.10;;;;;;4995667;28;20038;-61
2022/07/01 13:39:41;;;;;;;8.43;5.15;;;11.70;98.10;;;;;;4962448;28;20506;-61
2022/07/01 13:42:08;;;;;;;7.40;4.63;;;11.70;98.10;;;;;;4978551;28;20041;-61
2022/07/01 13:44:35;;;;;;;7.03;5.03;;;11.70;98.00;;;;;;4995358;28;20079;-62
2022/07/01 13:47:05;;;;;;;8.05;4.97;;;11.70;98.00;;;;;;4995395;28;20038;-62
2022/07/01 13:49:32;;;;;;;7.63;4.65;;;11.70;98.10;;;;;;4962797;28;20061;-62
2022/07/01 13:51:59;;;;;;;11.93;4.50;;;11.70;98.00;;;;;;4978434;28;20419;-62
2022/07/01 13:54:27;;;;;;;9.00;4.55;;;11.70;98.00;;;;;;4978550;28;20049;-62
2022/07/01 13:56:54;;;;;;;10.40;5.13;;;11.60;98.00;;;;;;4994990;28;20050;-62
2022/07/01 13:59:21;;;;;;;5.13;4.45;;;11.60;98.00;;;;;;4995858;28;20041;-62
2022/07/01 14:01:48;;;;;;;9.25;5.35;;;11.60;98.00;;;;;;4978389;28;20093;-62
2022/07/01 14:04:15;;;;;;;8.77;4.68;;;11.60;98.00;;;;;;4995491;28;20050;-62
2022/07/01 14:06:42;;;;;;;9.63;4.90;;;11.50;97.90;;;;;;4977896;28;20392;-63
2022/07/01 14:09:09;;;;;;;5.93;4.60;;;11.50;97.90;;;;;;4995168;28;20030;-62
2022/07/01 14:11:37;;;;;;;7.65;4.63;;;11.50;97.90;;;;;;4995049;28;20385;-62
2022/07/01 14:14:04;;;;;;;7.90;4.55;;;11.50;97.90;;;;;;4977766;28;20421;-62
2022/07/01 14:16:31;;;;;;;7.05;4.95;;;11.40;97.80;;;;;;4995204;28;20043;-62
2022/07/01 14:18:58;;;;;;;7.25;4.93;;;11.40;97.80;;;;;;4995435;28;20085;-62
2022/07/01 14:21:26;;;;;;;7.18;4.70;;;11.40;97.90;;;;;;4995422;28;20125;-62
2022/07/01 14:23:53;;;;;;;10.48;5.07;;;11.40;97.90;;;;;;4995246;28;20050;-62
2022/07/01 14:26:20;;;;;;;6.05;4.80;;;11.40;97.90;;;;;;4994771;28;20374;-62
2022/07/01 14:28:47;;;;;;;6.65;4.72;;;11.40;97.80;;;;;;4994583;28;20034;-61
2022/07/01 14:31:14;;;;;;;6.32;4.53;;;11.40;97.90;;;;;;4995408;28;20381;-62
2022/07/01 14:33:42;;;;;;;9.18;5.10;;;11.40;97.90;;;;;;4995238;28;20026;-62
2022/07/01 14:36:09;;;;;;;8.10;4.90;;;11.40;97.90;;;;;;4978166;28;20065;-62
2022/07/01 19:21:14;;;;;;;5.45;2.63;;;11.70;98.30;;;;;;5017116;28;20428;-62
2022/07/01 19:23:41;;;;;;;4.43;2.78;;;11.70;98.30;;;;;;5031809;28;20045;-61
2022/07/01 19:26:08;;;;;;;6.07;2.85;;;11.70;98.30;;;;;;5026402;28;20123;-61
2022/07/01 19:28:36;;;;;;;4.05;2.42;;;11.70;98.30;;;;;;5015084;28;20038;-63
2022/07/01 19:31:03;;;;;;;3.50;2.35;;;11.70;98.30;;;;;;5030648;28;20387;-63
2022/07/01 19:33:30;;;;;;;4.65;2.58;;;11.70;98.30;;;;;;5035625;28;20400;-63
2022/07/01 19:35:57;;;;;;;4.88;2.35;;;11.70;98.30;;;;;;5030680;28;20432;-63
2022/07/01 19:38:25;;;;;;;4.82;1.88;;;11.70;98.30;;;;;;5021038;28;20038;-62
2022/07/01 19:40:52;;;;;;;2.40;1.90;;;11.70;98.30;;;;;;5032752;28;20040;-62
2022/07/01 19:43:19;;;;;;;2.55;1.92;;;11.70;98.30;;;;;;5037845;28;20118;-62
2022/07/01 19:45:46;;;;;;;4.88;1.88;;;11.70;98.30;;;;;;5029934;28;20041;-62
2022/07/01 19:48:13;;;;;;;2.60;1.60;;;11.70;98.30;;;;;;5029971;28;20028;-63
2022/07/01 19:50:41;;;;;;;3.97;1.70;;;11.70;98.30;;;;;;5032499;28;20050;-63
2022/07/01 19:53:08;;;;;;;2.85;1.77;;;11.70;98.30;;;;;;5032976;28;20048;-62
2022/07/01 19:55:35;;;;;;;6.55;2.00;;;11.70;98.30;;;;;;5023022;28;20033;-62
2022/07/01 19:58:02;;;;;;;2.50;1.70;;;11.70;98.30;;;;;;5012064;28;20040;-63
2022/07/01 20:00:30;;;;;;;3.40;2.10;;;11.70;98.30;;;;;;5040855;28;20041;-62
2022/07/01 20:02:57;;;;;;;2.92;1.75;;;11.70;98.30;;;;;;5027508;28;20396;-62
2022/07/01 20:05:24;;;;;;;4.03;1.80;;;11.70;98.30;;;;;;5013247;28;20414;-62
2022/07/01 20:07:52;;;;;;;2.22;1.55;;;11.70;98.30;;;;;;5029481;28;20052;-62
2022/07/01 20:10:20;;;;;;;3.38;1.85;;;11.70;98.30;;;;;;5030852;28;20112;-62
2022/07/01 20:12:47;;;;;;;2.75;1.63;;;11.70;98.30;;;;;;5029808;28;20108;-62
2022/07/01 20:15:14;;;;;;;3.60;1.70;;;11.70;98.30;;;;;;5033221;28;20415;-63
2022/07/01 20:17:41;;;;;;;1.55;1.45;;;11.70;98.30;;;;;;5029724;28;20192;-63
2022/07/01 20:20:09;;;;;;;2.00;1.70;;;11.70;98.30;;;;;;4998962;28;20050;-61
2022/07/01 20:22:36;;;;;;;2.25;1.60;;;11.80;98.30;;;;;;5029246;28;20045;-61
2022/07/01 20:25:04;;;;;;;1.90;1.70;;;11.70;98.30;;;;;;5026651;28;20092;-61
2022/07/01 20:27:31;;;;;;;4.13;1.77;;;11.70;98.30;;;;;;5029213;28;20357;-62
2022/07/01 20:29:58;;;;;;;4.97;1.65;;;11.70;98.30;;;;;;5029340;28;20176;-61
2022/07/01 20:32:26;;;;;;;3.65;1.80;;;11.70;98.30;;;;;;5012017;28;20363;-62
2022/07/01 20:34:53;;;;;;;5.60;2.10;;;11.70;98.30;;;;;;5029143;28;20030;-61
2022/07/01 20:37:20;;;;;;;3.50;2.10;;;11.70;98.30;;;;;;5026465;28;20491;-62
2022/07/01 20:39:47;;;;;;;4.63;1.90;;;11.70;98.40;;;;;;5011513;28;20484;-62
2022/07/01 20:42:16;;;;;;;3.10;1.80;;;11.70;98.30;;;;;;5029300;28;20026;-62
2022/07/01 20:44:44;;;;;;;4.20;1.92;;;11.70;98.30;;;;;;5029145;28;20049;-61
2022/07/01 20:47:11;;;;;;;6.85;2.05;;;11.70;98.40;;;;;;5028638;28;20040;-62
2022/07/01 20:49:39;;;;;;;8.80;2.15;;;11.70;98.40;;;;;;5032336;28;20422;-63
2022/07/01 20:52:06;;;;;;;5.95;2.50;;;11.70;98.40;;;;;;5029043;28;20029;-62
2022/07/01 20:54:34;;;;;;;7.40;2.55;;;11.70;98.40;;;;;;5029082;28;20037;-62
2022/07/01 20:57:01;;;;;;;4.40;2.08;;;11.70;98.40;;;;;;5036373;28;20030;-63
2022/07/01 20:59:28;;;;;;;8.23;2.58;;;11.80;98.40;;;;;;5021531;28;20049;-62
2022/07/01 21:01:55;;;;;;;6.43;2.53;;;11.70;98.40;;;;;;5024015;28;20201;-62
2022/07/01 21:04:22;;;;;;;3.42;1.90;;;11.70;98.50;;;;;;5004166;28;20076;-61
2022/07/01 21:06:50;;;;;;;2.80;1.85;;;11.80;98.50;;;;;;5009871;28;20037;-61
2022/07/01 21:09:17;;;;;;;4.72;2.35;;;11.70;98.50;;;;;;5035647;28;20029;-60
2022/07/01 21:11:44;;;;;;;4.18;2.30;;;11.70;98.50;;;;;;5005001;28;20036;-61
2022/07/01 21:14:11;;;;;;;5.00;2.30;;;11.70;98.50;;;;;;5028455;28;20044;-61
2022/07/01 21:16:38;;;;;;;3.88;2.30;;;11.80;98.50;;;;;;5028881;28;20123;-61
2022/07/01 21:19:07;;;;;;;4.18;2.25;;;11.70;98.50;;;;;;5017841;28;20033;-61
2022/07/01 21:21:34;;;;;;;2.80;2.20;;;11.70;98.50;;;;;;5028726;28;20500;-61
2022/07/01 21:24:02;;;;;;;4.00;2.42;;;11.70;98.50;;;;;;5011084;28;20041;-62
2022/07/01 21:26:29;;;;;;;7.75;2.40;;;11.70;98.50;;;;;;5028729;28;20037;-61
2022/07/01 21:28:56;;;;;;;3.78;2.33;;;11.70;98.50;;;;;;5029143;28;20040;-61
2022/07/01 21:31:23;;;;;;;3.15;2.30;;;11.70;98.50;;;;;;5029502;28;20037;-61
2022/07/01 21:33:50;;;;;;;2.92;2.42;;;11.70;98.50;;;;;;5021051;28;20041;-61
2022/07/01 21:36:18;;;;;;;4.97;2.10;;;11.70;98.50;;;;;;5031782;28;20597;-61
2022/07/01 21:38:46;;;;;;;2.60;2.28;;;11.70;98.50;;;;;;5032774;28;20376;-61
2022/07/01 21:41:13;;;;;;;6.53;2.53;;;11.70;98.50;;;;;;5032895;28;21167;-62
2022/07/01 21:43:43;;;;;;;5.13;2.60;;;11.80;98.50;;;;;;5018707;28;20033;-61
2022/07/01 23:49:53;;;;;;;9.65;5.68;;;12.30;98.90;;;;;;5003757;28;20068;-61
2022/07/01 23:52:21;;;;;;;13.38;6.05;;;12.40;99.00;;;;;;5019491;28;20608;-60
2022/07/01 23:54:48;;;;;;;10.32;6.22;;;12.40;99.00;;;;;;5029587;28;20399;-61
2022/07/01 23:57:16;;;;;;;13.70;7.20;;;12.40;99.00;;;;;;5023098;28;20029;-61
2022/07/01 23:59:43;;;;;;;14.70;6.85;;;12.50;99.00;;;;;;5028450;28;20091;-61
